sensor_id;sensor_type;location;lat;lon;timestamp;temperature;humidity
56428;DHT22;42331;53.578;9.760;2023-04-01T00:00:19;9.70;99.90
56428;DHT22;42331;53.578;9.760;2023-04-01T00:02:50;9.60;99.90
56428;DHT22;42331;53.578;9.760;2023-04-01T00:05:21;9.70;99.90
56428;DHT22;42331;53.578;9.760;2023-04-01T00:07:52;9.70;99.90
56428;DHT22;42331;53.578;9.760;2023-04-01T00:10:23;9.70;99.90
56428;DHT22;42331;53.578;9.760;2023-04-01T00:12:53;9.70;99.90
56428;DHT22;42331;53.578;9.760;2023-04-01T00:15:24;9.70;99.90
56428;DHT22;42331;53.578;9.760;2023-04-01T00:17:54;9.60;99.90
56428;DHT22;42331;53.578;9.760;2023-04-01T00:20:25;9.60;99.90
56428;DHT22;42331;53.578;9.760;2023-04-01T00:22:56;9.60;99.90
56428;DHT22;42331;53.578;9.760;2023-04-01T00:25:28;9.60;99.90
56428;DHT22;42331;53.578;9.760;2023-04-01T00:27:59;9.60;99.90
56428;DHT22;42331;53.578;9.760;2023-04-01T00:30:29;9.60;99.90
56428;DHT22;42331;53.578;9.760;2023-04-01T00:33:00;9.60;99.90
56428;DHT22;42331;53.578;9.760;2023-04-01T00:35:31;9.60;99.90
56428;DHT22;42331;53.578;9.760;2023-04-01T00:38:03;9.60;99.90
56428;DHT22;42331;53.578;9.760;2023-04-01T00:40:43;9.60;99.90
56428;DHT22;42331;53.578;9.760;2023-04-01T00:43:18;9.60;99.90
56428;DHT22;42331;53.578;9.760;2023-04-01T00:45:50;9.60;99.90
56428;DHT22;42331;53.578;9.760;2023-04-01T00:48:24;9.60;99.90
56428;DHT22;42331;53.578;9.760;2023-04-01T00:51:09;9.60;99.90
56428;DHT22;42331;53.578;9.760;2023-04-01T00:53:44;9.60;99.90
56428;DHT22;42331;53.578;9.760;2023-04-01T00:56:33;9.60;99.90
56428;DHT22;42331;53.578;9.760;2023-04-01T00:59:21;9.60;99.90
56428;DHT22;42331;53.578;9.760;2023-04-01T01:01:52;9.60;99.90
56428;DHT22;42331;53.578;9.760;2023-04-01T01:04:26;9.60;99.90
56428;DHT22;42331;53.578;9.760;2023-04-01T01:15:34;9.60;99.90
56428;DHT22;42331;53.578;9.760;2023-04-01T01:18:19;9.60;99.90
56428;DHT22;42331;53.578;9.760;2023-04-01T01:32:16;9.70;99.90
56428;DHT22;42331;53.578;9.760;2023-04-01T01:35:22;9.70;99.90
56428;DHT22;42331;53.578;9.760;2023-04-01T01:38:00;9.70;99.90
56428;DHT22;42331;53.578;9.760;2023-04-01T01:40:33;9.70;99.90
56428;DHT22;42331;53.578;9.760;2023-04-01T01:43:08;9.70;99.90
56428;DHT22;42331;53.578;9.760;2023-04-01T01:45:46;9.70;99.90
56428;DHT22;42331;53.578;9.760;2023-04-01T01:48:19;9.70;99.90
56428;DHT22;42331;53.578;9.760;2023-04-01T01:50:51;9.70;99.90
56428;DHT22;42331;53.578;9.760;2023-04-01T01:53:22;9.70;99.90
56428;DHT22;42331;53.578;9.760;2023-04-01T01:55:53;9.70;99.90
56428;DHT22;42331;53.578;9.760;2023-04-01T01:58:35;9.70;99.90
56428;DHT22;42331;53.578;9.760;2023-04-01T02:01:17;9.70;99.90
56428;DHT22;42331;53.578;9.760;2023-04-01T02:03:52;9.70;99.90
56428;DHT22;42331;53.578;9.760;2023-04-01T02:06:26;9.70;99.90
56428;DHT22;42331;53.578;9.760;2023-04-01T02:09:03;9.70;99.90
56428;DHT22;42331;53.578;9.760;2023-04-01T02:11:43;9.70;99.90
56428;DHT22;42331;53.578;9.760;2023-04-01T02:14:58;9.70;99.90
56428;DHT22;42331;53.578;9.760;2023-04-01T02:17:26;9.60;99.90
56428;DHT22;42331;53.578;9.760;2023-04-01T02:20:16;9.60;99.90
56428;DHT22;42331;53.578;9.760;2023-04-01T02:22:50;9.60;99.90
56428;DHT22;42331;53.578;9.760;2023-04-01T02:25:30;9.60;99.90
56428;DHT22;42331;53.578;9.760;2023-04-01T02:28:02;9.60;99.90
56428;DHT22;42331;53.578;9.760;2023-04-01T02:30:36;9.60;99.90
56428;DHT22;42331;53.578;9.760;2023-04-01T02:33:08;9.60;99.90
56428;DHT22;42331;53.578;9.760;2023-04-01T02:35:39;9.50;99.90
56428;DHT22;42331;53.578;9.760;2023-04-01T02:38:10;9.50;99.90
56428;DHT22;42331;53.578;9.760;2023-04-01T02:41:00;9.50;99.90
56428;DHT22;42331;53.578;9.760;2023-04-01T02:43:31;9.50;99.90
56428;DHT22;42331;53.578;9.760;2023-04-01T02:46:02;9.50;99.90
56428;DHT22;42331;53.578;9.760;2023-04-01T02:48:32;9.50;99.90
56428;DHT22;42331;53.578;9.760;2023-04-01T02:51:03;9.50;99.90
56428;DHT22;42331;53.578;9.760;2023-04-01T02:53:34;9.50;99.90
56428;DHT22;42331;53.578;9.760;2023-04-01T02:56:05;9.50;99.90
56428;DHT22;42331;53.578;9.760;2023-04-01T02:58:35;9.60;99.90
56428;DHT22;42331;53.578;9.760;2023-04-01T03:01:06;9.60;99.90
56428;DHT22;42331;53.578;9.760;2023-04-01T03:03:38;9.60;99.90
56428;DHT22;42331;53.578;9.760;2023-04-01T03:06:11;9.50;99.90
56428;DHT22;42331;53.578;9.760;2023-04-01T03:08:43;9.60;99.90
56428;DHT22;42331;53.578;9.760;2023-04-01T03:11:14;9.60;99.90
56428;DHT22;42331;53.578;9.760;2023-04-01T03:13:45;9.60;99.90
56428;DHT22;42331;53.578;9.760;2023-04-01T03:16:16;9.60;99.90
56428;DHT22;42331;53.578;9.760;2023-04-01T03:18:46;9.60;99.90
56428;DHT22;42331;53.578;9.760;2023-04-01T03:21:22;9.60;99.90
56428;DHT22;42331;53.578;9.760;2023-04-01T03:23:53;9.60;99.90
56428;DHT22;42331;53.578;9.760;2023-04-01T03:26:23;9.60;99.90
56428;DHT22;42331;53.578;9.760;2023-04-01T03:28:54;9.60;99.90
56428;DHT22;42331;53.578;9.760;2023-04-01T03:31:25;9.50;99.90
56428;DHT22;42331;53.578;9.760;2023-04-01T03:33:56;9.60;99.90
56428;DHT22;42331;53.578;9.760;2023-04-01T03:36:27;9.50;99.90
56428;DHT22;42331;53.578;9.760;2023-04-01T03:38:58;9.60;99.90
56428;DHT22;42331;53.578;9.760;2023-04-01T03:41:28;9.60;99.90
56428;DHT22;42331;53.578;9.760;2023-04-01T03:43:59;9.60;99.90
56428;DHT22;42331;53.578;9.760;2023-04-01T03:46:30;9.50;99.90
56428;DHT22;42331;53.578;9.760;2023-04-01T03:49:01;9.60;99.90
56428;DHT22;42331;53.578;9.760;2023-04-01T03:51:31;9.50;99.90
56428;DHT22;42331;53.578;9.760;2023-04-01T03:54:02;9.50;99.90
56428;DHT22;42331;53.578;9.760;2023-04-01T03:56:33;9.50;99.90
56428;DHT22;42331;53.578;9.760;2023-04-01T03:59:05;9.50;99.90
56428;DHT22;42331;53.578;9.760;2023-04-01T04:01:36;9.50;99.90
56428;DHT22;42331;53.578;9.760;2023-04-01T04:04:07;9.60;99.90
56428;DHT22;42331;53.578;9.760;2023-04-01T04:06:38;9.50;99.90
56428;DHT22;42331;53.578;9.760;2023-04-01T04:09:09;9.60;99.90
56428;DHT22;42331;53.578;9.760;2023-04-01T04:11:40;9.60;99.90
56428;DHT22;42331;53.578;9.760;2023-04-01T04:14:10;9.60;99.90
56428;DHT22;42331;53.578;9.760;2023-04-01T04:16:41;9.50;99.90
56428;DHT22;42331;53.578;9.760;2023-04-01T04:19:12;9.50;99.90
56428;DHT22;42331;53.578;9.760;2023-04-01T04:21:42;9.60;99.90
56428;DHT22;42331;53.578;9.760;2023-04-01T04:24:13;9.60;99.90
56428;DHT22;42331;53.578;9.760;2023-04-01T04:26:44;9.60;99.90
56428;DHT22;42331;53.578;9.760;2023-04-01T04:29:14;9.60;99.90
56428;DHT22;42331;53.578;9.760;2023-04-01T04:31:45;9.60;99.90
56428;DHT22;42331;53.578;9.760;2023-04-01T04:34:16;9.60;99.90
56428;DHT22;42331;53.578;9.760;2023-04-01T04:36:46;9.60;99.90
56428;DHT22;42331;53.578;9.760;2023-04-01T04:39:17;9.50;99.90
56428;DHT22;42331;53.578;9.760;2023-04-01T04:41:48;9.60;99.90
56428;DHT22;42331;53.578;9.760;2023-04-01T04:44:18;9.60;99.90
56428;DHT22;42331;53.578;9.760;2023-04-01T04:46:49;9.60;99.90
56428;DHT22;42331;53.578;9.760;2023-04-01T04:49:20;9.60;99.90
56428;DHT22;42331;53.578;9.760;2023-04-01T04:51:50;9.60;99.90
56428;DHT22;42331;53.578;9.760;2023-04-01T04:54:22;9.60;99.90
56428;DHT22;42331;53.578;9.760;2023-04-01T04:56:53;9.60;99.90
56428;DHT22;42331;53.578;9.760;2023-04-01T04:59:24;9.60;99.90
56428;DHT22;42331;53.578;9.760;2023-04-01T05:01:54;9.60;99.90
56428;DHT22;42331;53.578;9.760;2023-04-01T05:04:25;9.60;99.90
56428;DHT22;42331;53.578;9.760;2023-04-01T05:06:56;9.60;99.90
56428;DHT22;42331;53.578;9.760;2023-04-01T05:09:27;9.60;99.90
56428;DHT22;42331;53.578;9.760;2023-04-01T05:11:57;9.60;99.90
56428;DHT22;42331;53.578;9.760;2023-04-01T05:14:28;9.60;99.90
56428;DHT22;42331;53.578;9.760;2023-04-01T05:16:59;9.60;99.90
56428;DHT22;42331;53.578;9.760;2023-04-01T05:19:29;9.60;99.90
56428;DHT22;42331;53.578;9.760;2023-04-01T05:22:00;9.60;99.90
56428;DHT22;42331;53.578;9.760;2023-04-01T05:24:31;9.60;99.90
56428;DHT22;42331;53.578;9.760;2023-04-01T05:27:02;9.60;99.90
56428;DHT22;42331;53.578;9.760;2023-04-01T05:29:32;9.60;99.90
56428;DHT22;42331;53.578;9.760;2023-04-01T05:32:03;9.40;99.90
56428;DHT22;42331;53.578;9.760;2023-04-01T05:34:34;9.30;99.90
56428;DHT22;42331;53.578;9.760;2023-04-01T05:37:05;9.10;99.90
56428;DHT22;42331;53.578;9.760;2023-04-01T05:39:38;8.90;99.90
56428;DHT22;42331;53.578;9.760;2023-04-01T05:42:09;8.80;99.90
56428;DHT22;42331;53.578;9.760;2023-04-01T05:44:39;8.70;99.90
56428;DHT22;42331;53.578;9.760;2023-04-01T05:47:10;8.70;99.90
56428;DHT22;42331;53.578;9.760;2023-04-01T05:49:41;8.60;99.90
56428;DHT22;42331;53.578;9.760;2023-04-01T05:52:11;8.50;99.90
56428;DHT22;42331;53.578;9.760;2023-04-01T05:54:42;8.40;99.90
56428;DHT22;42331;53.578;9.760;2023-04-01T05:57:12;8.30;99.90
56428;DHT22;42331;53.578;9.760;2023-04-01T05:59:43;8.30;99.90
56428;DHT22;42331;53.578;9.760;2023-04-01T06:02:17;8.20;99.90
56428;DHT22;42331;53.578;9.760;2023-04-01T06:04:49;8.20;99.90
56428;DHT22;42331;53.578;9.760;2023-04-01T06:07:24;8.20;99.90
56428;DHT22;42331;53.578;9.760;2023-04-01T06:09:55;8.10;99.90
56428;DHT22;42331;53.578;9.760;2023-04-01T06:12:29;8.10;99.90
56428;DHT22;42331;53.578;9.760;2023-04-01T06:23:17;8.00;99.90
56428;DHT22;42331;53.578;9.760;2023-04-01T06:40:02;7.80;99.90
56428;DHT22;42331;53.578;9.760;2023-04-01T06:45:34;7.70;99.90
56428;DHT22;42331;53.578;9.760;2023-04-01T06:50:43;7.50;99.90
56428;DHT22;42331;53.578;9.760;2023-04-01T06:56:18;7.50;99.90
56428;DHT22;42331;53.578;9.760;2023-04-01T06:59:05;7.50;99.90
56428;DHT22;42331;53.578;9.760;2023-04-01T07:04:44;7.50;99.90
56428;DHT22;42331;53.578;9.760;2023-04-01T07:10:15;7.30;99.90
56428;DHT22;42331;53.578;9.760;2023-04-01T07:12:51;7.20;99.90
56428;DHT22;42331;53.578;9.760;2023-04-01T07:21:46;7.30;99.90
56428;DHT22;42331;53.578;9.760;2023-04-01T07:24:39;7.20;99.90
56428;DHT22;42331;53.578;9.760;2023-04-01T07:27:13;7.20;99.90
56428;DHT22;42331;53.578;9.760;2023-04-01T07:29:44;7.20;99.90
56428;DHT22;42331;53.578;9.760;2023-04-01T07:35:13;7.20;99.90
56428;DHT22;42331;53.578;9.760;2023-04-01T07:43:56;7.00;99.90
56428;DHT22;42331;53.578;9.760;2023-04-01T07:49:34;7.20;99.90
56428;DHT22;42331;53.578;9.760;2023-04-01T08:01:02;7.00;99.90
56428;DHT22;42331;53.578;9.760;2023-04-01T08:18:07;6.90;99.90
56428;DHT22;42331;53.578;9.760;2023-04-01T08:23:36;6.80;99.90
56428;DHT22;42331;53.578;9.760;2023-04-01T08:29:21;6.80;99.90
56428;DHT22;42331;53.578;9.760;2023-04-01T08:32:10;6.80;99.90
56428;DHT22;42331;53.578;9.760;2023-04-01T08:34:47;6.80;99.90
56428;DHT22;42331;53.578;9.760;2023-04-01T08:37:25;6.80;99.90
56428;DHT22;42331;53.578;9.760;2023-04-01T08:57:38;6.70;99.90
56428;DHT22;42331;53.578;9.760;2023-04-01T09:00:31;6.80;99.90
56428;DHT22;42331;53.578;9.760;2023-04-01T09:25:53;6.80;99.90
56428;DHT22;42331;53.578;9.760;2023-04-01T09:37:36;6.80;99.90
56428;DHT22;42331;53.578;9.760;2023-04-01T09:40:43;6.80;99.90
56428;DHT22;42331;53.578;9.760;2023-04-01T09:46:11;6.80;99.90
56428;DHT22;42331;53.578;9.760;2023-04-01T10:09:41;7.10;99.90
56428;DHT22;42331;53.578;9.760;2023-04-01T10:15:26;7.10;99.90
56428;DHT22;42331;53.578;9.760;2023-04-01T10:18:40;7.10;99.90
56428;DHT22;42331;53.578;9.760;2023-04-01T10:24:45;7.00;99.90
56428;DHT22;42331;53.578;9.760;2023-04-01T10:32:58;7.10;99.90
56428;DHT22;42331;53.578;9.760;2023-04-01T10:35:43;7.10;99.90
56428;DHT22;42331;53.578;9.760;2023-04-01T11:27:42;7.30;99.90
56428;DHT22;42331;53.578;9.760;2023-04-01T11:30:55;7.20;99.90
56428;DHT22;42331;53.578;9.760;2023-04-01T11:33:38;7.20;99.90
56428;DHT22;42331;53.578;9.760;2023-04-01T11:36:43;7.10;99.90
56428;DHT22;42331;53.578;9.760;2023-04-01T11:39:37;7.10;99.90
56428;DHT22;42331;53.578;9.760;2023-04-01T11:48:07;7.00;99.90
56428;DHT22;42331;53.578;9.760;2023-04-01T12:13:57;7.30;99.90
56428;DHT22;42331;53.578;9.760;2023-04-01T12:16:58;7.30;99.90
56428;DHT22;42331;53.578;9.760;2023-04-01T12:22:41;7.10;99.90
56428;DHT22;42331;53.578;9.760;2023-04-01T12:25:49;7.00;99.90
56428;DHT22;42331;53.578;9.760;2023-04-01T12:36:44;6.70;99.90
56428;DHT22;42331;53.578;9.760;2023-04-01T12:39:58;6.80;99.90
56428;DHT22;42331;53.578;9.760;2023-04-01T12:42:59;6.80;99.90
56428;DHT22;42331;53.578;9.760;2023-04-01T12:45:35;6.80;99.90
56428;DHT22;42331;53.578;9.760;2023-04-01T12:54:14;6.70;99.90
56428;DHT22;42331;53.578;9.760;2023-04-01T12:59:50;6.80;99.90
56428;DHT22;42331;53.578;9.760;2023-04-01T13:08:21;6.80;99.90
56428;DHT22;42331;53.578;9.760;2023-04-01T13:19:49;6.70;99.90
56428;DHT22;42331;53.578;9.760;2023-04-01T13:22:30;6.60;99.90
56428;DHT22;42331;53.578;9.760;2023-04-01T13:28:18;6.60;99.90
56428;DHT22;42331;53.578;9.760;2023-04-01T13:31:09;6.50;99.90
56428;DHT22;42331;53.578;9.760;2023-04-01T13:34:06;6.40;99.90
56428;DHT22;42331;53.578;9.760;2023-04-01T13:37:02;6.40;99.90
56428;DHT22;42331;53.578;9.760;2023-04-01T13:39:43;6.50;99.90
56428;DHT22;42331;53.578;9.760;2023-04-01T13:42:36;6.50;99.90
56428;DHT22;42331;53.578;9.760;2023-04-01T13:46:04;6.50;99.90
56428;DHT22;42331;53.578;9.760;2023-04-01T13:48:50;6.60;99.90
56428;DHT22;42331;53.578;9.760;2023-04-01T14:11:15;6.50;99.90
56428;DHT22;42331;53.578;9.760;2023-04-01T14:14:05;6.40;99.90
56428;DHT22;42331;53.578;9.760;2023-04-01T14:28:29;6.20;99.90
56428;DHT22;42331;53.578;9.760;2023-04-01T14:31:27;6.20;99.90
56428;DHT22;42331;53.578;9.760;2023-04-01T14:37:36;6.10;99.90
56428;DHT22;42331;53.578;9.760;2023-04-01T14:40:27;6.10;99.90
56428;DHT22;42331;53.578;9.760;2023-04-01T14:51:36;6.20;99.90
56428;DHT22;42331;53.578;9.760;2023-04-01T14:57:12;6.10;99.90
56428;DHT22;42331;53.578;9.760;2023-04-01T15:02:59;6.00;99.90
56428;DHT22;42331;53.578;9.760;2023-04-01T15:05:47;5.90;99.90
56428;DHT22;42331;53.578;9.760;2023-04-01T15:08:22;5.90;99.90
56428;DHT22;42331;53.578;9.760;2023-04-01T15:16:16;6.00;99.90
56428;DHT22;42331;53.578;9.760;2023-04-01T15:24:24;6.00;99.90
56428;DHT22;42331;53.578;9.760;2023-04-01T15:35:50;5.90;99.90
56428;DHT22;42331;53.578;9.760;2023-04-01T15:43:52;5.90;99.90
56428;DHT22;42331;53.578;9.760;2023-04-01T15:46:55;5.90;99.90
56428;DHT22;42331;53.578;9.760;2023-04-01T15:49:43;5.90;99.90
56428;DHT22;42331;53.578;9.760;2023-04-01T16:01:19;5.70;99.90
56428;DHT22;42331;53.578;9.760;2023-04-01T16:15:24;5.60;99.90
56428;DHT22;42331;53.578;9.760;2023-04-01T16:23:59;5.40;99.90
56428;DHT22;42331;53.578;9.760;2023-04-01T16:26:50;5.50;99.90
56428;DHT22;42331;53.578;9.760;2023-04-01T16:32:17;5.40;99.90
56428;DHT22;42331;53.578;9.760;2023-04-01T16:37:49;5.40;99.90
56428;DHT22;42331;53.578;9.760;2023-04-01T16:40:44;5.40;99.90
56428;DHT22;42331;53.578;9.760;2023-04-01T16:48:58;5.30;99.90
56428;DHT22;42331;53.578;9.760;2023-04-01T16:51:54;5.30;99.90
56428;DHT22;42331;53.578;9.760;2023-04-01T16:57:56;5.10;99.90
56428;DHT22;42331;53.578;9.760;2023-04-01T17:00:53;5.20;99.90
56428;DHT22;42331;53.578;9.760;2023-04-01T17:04:10;5.10;99.90
56428;DHT22;42331;53.578;9.760;2023-04-01T17:09:56;5.20;99.90
56428;DHT22;42331;53.578;9.760;2023-04-01T17:12:40;5.10;99.90
56428;DHT22;42331;53.578;9.760;2023-04-01T17:21:10;5.10;99.90
56428;DHT22;42331;53.578;9.760;2023-04-01T17:26:44;5.00;99.90
56428;DHT22;42331;53.578;9.760;2023-04-01T17:43:43;5.10;99.90
56428;DHT22;42331;53.578;9.760;2023-04-01T17:50:28;5.00;99.90
56428;DHT22;42331;53.578;9.760;2023-04-01T18:04:37;5.00;99.90
56428;DHT22;42331;53.578;9.760;2023-04-01T18:10:10;4.90;99.90
56428;DHT22;42331;53.578;9.760;2023-04-01T18:24:21;5.00;99.90
56428;DHT22;42331;53.578;9.760;2023-04-01T18:27:24;5.00;99.90
56428;DHT22;42331;53.578;9.760;2023-04-01T18:33:18;4.90;99.90
56428;DHT22;42331;53.578;9.760;2023-04-01T18:42:20;4.90;99.90
56428;DHT22;42331;53.578;9.760;2023-04-01T18:45:18;4.90;99.90
56428;DHT22;42331;53.578;9.760;2023-04-01T18:51:21;4.80;99.90
56428;DHT22;42331;53.578;9.760;2023-04-01T18:54:21;4.80;99.90
56428;DHT22;42331;53.578;9.760;2023-04-01T18:57:22;4.80;99.90
56428;DHT22;42331;53.578;9.760;2023-04-01T18:59:58;4.80;99.90
56428;DHT22;42331;53.578;9.760;2023-04-01T19:02:58;4.70;99.90
56428;DHT22;42331;53.578;9.760;2023-04-01T19:05:39;4.70;99.90
56428;DHT22;42331;53.578;9.760;2023-04-01T19:08:28;4.60;99.90
56428;DHT22;42331;53.578;9.760;2023-04-01T19:11:29;4.70;99.90
56428;DHT22;42331;53.578;9.760;2023-04-01T19:14:12;4.70;99.90
56428;DHT22;42331;53.578;9.760;2023-04-01T19:16:57;4.70;99.90
56428;DHT22;42331;53.578;9.760;2023-04-01T19:31:11;4.70;99.90
56428;DHT22;42331;53.578;9.760;2023-04-01T19:37:01;4.60;99.90
56428;DHT22;42331;53.578;9.760;2023-04-01T19:39:51;4.60;99.90
56428;DHT22;42331;53.578;9.760;2023-04-01T19:42:48;4.60;99.90
56428;DHT22;42331;53.578;9.760;2023-04-01T19:51:07;4.60;99.90
56428;DHT22;42331;53.578;9.760;2023-04-01T19:56:38;4.30;99.90
56428;DHT22;42331;53.578;9.760;2023-04-01T19:59:39;4.20;99.90
56428;DHT22;42331;53.578;9.760;2023-04-01T20:04:52;4.10;99.90
56428;DHT22;42331;53.578;9.760;2023-04-01T20:07:36;4.00;99.90
56428;DHT22;42331;53.578;9.760;2023-04-01T20:10:13;4.00;99.90
56428;DHT22;42331;53.578;9.760;2023-04-01T20:15:39;3.90;99.90
56428;DHT22;42331;53.578;9.760;2023-04-01T20:26:35;3.90;99.90
56428;DHT22;42331;53.578;9.760;2023-04-01T20:38:04;3.80;99.90
56428;DHT22;42331;53.578;9.760;2023-04-01T20:40:50;3.80;99.90
56428;DHT22;42331;53.578;9.760;2023-04-01T20:46:53;3.80;99.90
56428;DHT22;42331;53.578;9.760;2023-04-01T20:49:30;3.70;99.90
56428;DHT22;42331;53.578;9.760;2023-04-01T21:00:20;3.50;99.90
56428;DHT22;42331;53.578;9.760;2023-04-01T21:06:26;3.30;99.90
56428;DHT22;42331;53.578;9.760;2023-04-01T21:14:49;3.30;99.90
56428;DHT22;42331;53.578;9.760;2023-04-01T21:20:39;3.20;99.90
56428;DHT22;42331;53.578;9.760;2023-04-01T21:26:06;3.20;99.90
56428;DHT22;42331;53.578;9.760;2023-04-01T21:31:53;3.10;99.90
56428;DHT22;42331;53.578;9.760;2023-04-01T22:05:56;2.70;99.90
56428;DHT22;42331;53.578;9.760;2023-04-01T22:17:45;2.70;99.90
56428;DHT22;42331;53.578;9.760;2023-04-01T22:25:51;2.60;99.90
56428;DHT22;42331;53.578;9.760;2023-04-01T22:28:50;2.60;99.90
56428;DHT22;42331;53.578;9.760;2023-04-01T22:31:28;2.60;99.90
56428;DHT22;42331;53.578;9.760;2023-04-01T22:39:40;2.50;99.90
56428;DHT22;42331;53.578;9.760;2023-04-01T22:48:40;2.40;99.90
56428;DHT22;42331;53.578;9.760;2023-04-01T22:51:18;2.40;99.90
56428;DHT22;42331;53.578;9.760;2023-04-01T22:56:36;2.40;99.90
56428;DHT22;42331;53.578;9.760;2023-04-01T22:59:13;2.40;99.90
56428;DHT22;42331;53.578;9.760;2023-04-01T23:01:53;2.40;99.90
56428;DHT22;42331;53.578;9.760;2023-04-01T23:04:32;2.30;99.90
56428;DHT22;42331;53.578;9.760;2023-04-01T23:09:56;2.30;99.90
56428;DHT22;42331;53.578;9.760;2023-04-01T23:12:28;2.30;99.90
56428;DHT22;42331;53.578;9.760;2023-04-01T23:15:01;2.30;99.90
56428;DHT22;42331;53.578;9.760;2023-04-01T23:20:32;2.30;99.90
56428;DHT22;42331;53.578;9.760;2023-04-01T23:29:04;2.20;99.90
56428;DHT22;42331;53.578;9.760;2023-04-01T23:31:38;2.20;99.90
56428;DHT22;42331;53.578;9.760;2023-04-01T23:34:25;2.20;99.90
56428;DHT22;42331;53.578;9.760;2023-04-01T23:37:12;2.20;99.90
56428;DHT22;42331;53.578;9.760;2023-04-01T23:39:45;2.20;99.90
56428;DHT22;42331;53.578;9.760;2023-04-01T23:42:23;2.20;99.90
56428;DHT22;42331;53.578;9.760;2023-04-01T23:45:11;2.20;99.90
56428;DHT22;42331;53.578;9.760;2023-04-01T23:47:45;2.20;99.90
56428;DHT22;42331;53.578;9.760;2023-04-01T23:50:21;2.30;99.90
56428;DHT22;42331;53.578;9.760;2023-04-01T23:52:59;2.30;99.90
56428;DHT22;42331;53.578;9.760;2023-04-01T23:55:33;2.30;99.90
